Date,TemperatureHighF,TemperatureAvgF,TemperatureLowF,DewpointHighF,DewpointAvgF,DewpointLowF,HumidityHigh,HumidityAvg,HumidityLow,PressureMaxIn,PressureMinIn,WindSpeedMaxMPH,WindSpeedAvgMPH,GustSpeedMaxMPH,PrecipitationSumIn
2013-9-1,85,74,63,78,67,57,99,82,41,29.88,29.71,23,8,23,0.00
2013-9-2,76,65,52,63,58,52,99,82,49,30.01,29.88,18,7,18,0.00
2013-9-3,83,62,44,62,54,44,99,80,36,30.08,29.98,9,3,9,0.00
2013-9-4,93,70,50,72,62,50,99,79,41,30.10,30.00,12,3,12,0.00
2013-9-5,94,77,61,75,69,61,99,80,47,30.14,30.06,11,3,11,0.00
2013-9-6,92,76,63,70,65,58,99,72,34,30.11,29.91,14,6,14,0.00
2013-9-7,97,79,64,77,70,63,99,77,40,29.92,29.81,14,4,14,0.00
2013-9-8,86,75,72,75,73,71,99,92,65,29.95,29.83,15,5,15,0.00
2013-9-9,101,82,69,78,68,59,99,69,27,29.83,29.73,23,6,23,0.00
2013-9-10,98,82,69,74,66,57,97,63,28,29.96,29.81,25,8,25,0.00
2013-9-11,90,76,66,72,68,62,99,80,41,30.04,29.94,22,4,22,0.00
2013-9-12,79,66,52,66,55,44,99,71,31,30.12,29.99,24,8,24,0.00
2013-9-13,77,59,45,53,47,38,99,71,27,30.21,30.07,12,4,12,0.00
2013-9-14,79,59,36,51,43,35,99,63,22,30.11,29.88,17,5,17,0.00
2013-9-15,66,60,55,65,58,48,99,93,59,30.18,29.85,16,6,16,0.26
2013-9-16,76,59,46,60,54,46,99,86,45,30.32,30.17,11,2,11,0.00
2013-9-17,66,59,45,65,57,45,99,94,75,30.24,29.97,19,7,19,0.00
2013-9-18,92,73,62,74,68,59,99,85,50,29.98,29.73,23,8,23,0.25
2013-9-19,88,74,66,76,70,65,99,89,53,29.79,29.65,49,8,49,1.36
2013-9-20,68,60,51,67,57,51,99,90,72,29.89,29.77,21,10,21,0.01
2013-9-21,72,56,44,55,49,44,99,82,44,29.95,29.85,20,6,20,0.00
2013-9-22,80,59,39,58,49,39,99,76,37,29.98,29.87,14,4,14,0.00
2013-9-23,79,61,48,56,51,47,99,75,35,29.97,29.85,21,6,21,0.00
2013-9-24,78,62,45,60,54,45,99,80,47,29.91,29.82,12,4,12,0.00
2013-9-25,84,64,49,59,54,49,99,75,34,29.92,29.82,11,3,11,0.00
2013-9-26,88,70,54,64,59,54,99,72,37,29.93,29.85,21,7,21,0.00
2013-9-27,87,72,59,66,61,57,99,73,39,29.98,29.86,24,9,24,0.00
2013-9-28,74,62,50,68,59,50,99,89,70,29.98,29.77,27,9,27,0.20
2013-9-29,77,58,38,60,46,38,99,73,27,30.03,29.89,15,4,15,0.00
2013-9-30,79,62,46,60,50,43,99,71,29,29.90,29.70,24,8,24,0.00